createdAt,value
2023-05-09T00:00:33.256Z,98213.31
2023-05-09T00:03:06.640Z,98203.19
2023-05-09T00:05:39.815Z,98209.53
2023-05-09T00:08:12.909Z,98213.03
2023-05-09T00:10:45.880Z,98210.25
2023-05-09T00:13:19.045Z,98206.75
2023-05-09T00:15:54.712Z,98204.03
2023-05-09T00:18:28.258Z,98195.22
2023-05-09T00:21:03.095Z,98196.66
2023-05-09T00:23:36.146Z,98199.22
2023-05-09T00:26:09.318Z,98196.75
2023-05-09T00:28:42.274Z,98193.31
2023-05-09T00:31:16.663Z,98194.91
2023-05-09T00:33:49.681Z,98191.22
2023-05-09T00:36:22.632Z,98186.56
2023-05-09T00:38:55.573Z,98175.56
2023-05-09T00:41:28.531Z,98178.03
2023-05-09T00:44:01.514Z,98179.19
2023-05-09T00:46:36.029Z,98177.75
2023-05-09T00:49:09.136Z,98165.31
2023-05-09T00:51:42.808Z,98167.25
2023-05-09T00:54:16.000Z,98168.28
2023-05-09T00:56:49.205Z,98156.41
2023-05-09T00:59:22.276Z,98159.94
2023-05-09T01:01:56.997Z,98158.09
2023-05-09T01:04:30.440Z,98159.06
2023-05-09T01:07:07.666Z,98150.53
2023-05-09T01:09:49.921Z,98146.28
2023-05-09T01:12:34.091Z,98137.06
2023-05-09T01:15:15.931Z,98131.13
2023-05-09T01:17:56.391Z,98129.28
2023-05-09T01:20:36.987Z,98130.25
2023-05-09T01:23:36.125Z,98127.72
2023-05-09T01:26:21.788Z,98128.44
2023-05-09T01:29:35.367Z,98118.13
2023-05-09T01:32:11.877Z,98121.66
2023-05-09T01:34:46.089Z,98124.13
2023-05-09T01:37:25.200Z,98128.31
2023-05-09T01:40:02.031Z,98125.72
2023-05-09T01:42:44.106Z,98123.09
2023-05-09T01:45:19.457Z,98121.41
2023-05-09T01:47:52.945Z,98130.81
2023-05-09T01:50:27.161Z,98137.47
2023-05-09T01:53:02.681Z,98132.50
2023-05-09T01:55:37.651Z,98127.56
2023-05-09T01:58:12.092Z,98133.59
2023-05-09T02:00:48.448Z,98128.41
2023-05-09T02:03:22.258Z,98132.56
2023-05-09T02:05:57.912Z,98129.94
2023-05-09T02:08:31.965Z,98126.69
2023-05-09T02:11:05.058Z,98126.53
2023-05-09T02:13:38.405Z,98125.56
2023-05-09T02:16:12.773Z,98123.47
2023-05-09T02:18:47.079Z,98131.88
2023-05-09T02:21:20.119Z,98130.75
2023-05-09T02:23:53.196Z,98133.22
2023-05-09T02:26:27.166Z,98136.50
2023-05-09T02:29:01.171Z,98125.44
2023-05-09T02:31:36.654Z,98121.91
2023-05-09T02:34:10.860Z,98121.66
2023-05-09T02:36:44.381Z,98130.72
2023-05-09T02:39:18.143Z,98123.03
2023-05-09T02:41:51.248Z,98121.28
2023-05-09T02:44:24.323Z,98123.38
2023-05-09T02:46:58.686Z,98123.75
2023-05-09T02:49:32.752Z,98128.13
2023-05-09T02:52:06.376Z,98124.94
2023-05-09T02:54:39.578Z,98124.53
2023-05-09T02:57:12.589Z,98111.81
2023-05-09T02:59:45.592Z,98122.50
2023-05-09T03:02:19.963Z,98120.28
2023-05-09T03:04:53.411Z,98123.72
2023-05-09T03:07:26.481Z,98118.81
2023-05-09T03:09:59.449Z,98115.63
2023-05-09T03:12:32.474Z,98113.31
2023-05-09T03:15:06.550Z,98116.78
2023-05-09T03:17:41.142Z,98110.84
2023-05-09T03:20:14.999Z,98109.25
2023-05-09T03:22:48.461Z,98102.34
2023-05-09T03:25:22.268Z,98110.19
2023-05-09T03:27:55.316Z,98103.81
2023-05-09T03:30:28.400Z,98103.91
2023-05-09T03:33:04.824Z,98097.50
2023-05-09T03:35:37.878Z,98095.91
2023-05-09T03:38:10.931Z,98095.47
2023-05-09T03:40:43.935Z,98099.41
2023-05-09T03:43:16.947Z,98095.56
2023-05-09T03:45:49.951Z,98092.75
2023-05-09T03:48:24.317Z,98084.09
2023-05-09T03:50:57.405Z,98077.91
2023-05-09T03:53:30.498Z,98074.00
2023-05-09T03:56:03.494Z,98072.91
2023-05-09T03:58:36.466Z,98074.16
2023-05-09T04:01:09.481Z,98063.47
2023-05-09T04:03:43.930Z,98068.25
2023-05-09T04:06:17.082Z,98065.97
2023-05-09T04:08:50.067Z,98071.75
2023-05-09T04:11:23.069Z,98063.75
2023-05-09T04:13:56.269Z,98070.81
2023-05-09T04:16:29.345Z,98068.97
2023-05-09T04:19:03.744Z,98075.47
2023-05-09T04:21:37.872Z,98080.25
2023-05-09T04:24:10.928Z,98080.75
2023-05-09T04:26:43.976Z,98086.03
2023-05-09T04:29:17.002Z,98084.06
2023-05-09T04:31:50.130Z,98077.81
2023-05-09T04:34:25.977Z,98074.31
2023-05-09T04:36:59.007Z,98076.22
2023-05-09T04:39:31.962Z,98067.97
2023-05-09T04:42:05.585Z,98078.16
2023-05-09T04:44:38.572Z,98077.66
2023-05-09T04:47:11.572Z,98086.56
2023-05-09T04:49:45.896Z,98078.47
2023-05-09T04:52:19.113Z,98079.59
2023-05-09T04:54:52.083Z,98081.53
2023-05-09T04:57:25.191Z,98078.47
2023-05-09T04:59:58.318Z,98081.84
2023-05-09T05:02:32.153Z,98084.63
2023-05-09T05:05:12.067Z,98080.63
2023-05-09T05:07:46.302Z,98081.84
2023-05-09T05:10:19.779Z,98082.38
2023-05-09T05:12:52.810Z,98084.66
2023-05-09T05:15:26.690Z,98085.97
2023-05-09T05:18:00.010Z,98089.81
2023-05-09T05:20:34.626Z,98090.25
2023-05-09T05:23:07.633Z,98089.75
2023-05-09T05:25:40.831Z,98085.88
2023-05-09T05:28:13.866Z,98087.16
2023-05-09T05:30:46.988Z,98080.91
2023-05-09T05:33:19.983Z,98075.84
2023-05-09T05:35:54.337Z,98081.97
2023-05-09T05:38:27.388Z,98076.03
2023-05-09T05:41:00.637Z,98077.09
2023-05-09T05:43:33.598Z,98077.91
2023-05-09T05:46:06.714Z,98076.31
2023-05-09T05:48:39.735Z,98083.81
2023-05-09T05:51:14.066Z,98079.34
2023-05-09T05:53:47.019Z,98072.66
2023-05-09T05:56:20.000Z,98067.72
2023-05-09T05:58:53.980Z,98061.06
2023-05-09T06:01:27.011Z,98064.13
2023-05-09T06:04:00.101Z,98059.19
2023-05-09T06:06:34.679Z,98053.81
2023-05-09T06:09:07.756Z,98049.22
2023-05-09T06:11:40.716Z,98046.72
2023-05-09T06:14:13.703Z,98036.09
2023-05-09T06:16:46.738Z,98046.69
2023-05-09T06:19:19.794Z,98036.28
2023-05-09T06:21:54.169Z,98035.88
2023-05-09T06:24:35.722Z,98022.50
2023-05-09T06:27:09.932Z,98020.41
2023-05-09T06:29:42.893Z,98017.88
2023-05-09T06:32:18.692Z,98015.47
2023-05-09T06:34:52.604Z,98007.66
2023-05-09T06:37:26.984Z,98017.75
2023-05-09T06:39:59.938Z,98013.22
2023-05-09T06:42:33.769Z,98010.84
2023-05-09T06:45:08.371Z,98019.22
2023-05-09T06:47:41.589Z,98013.81
2023-05-09T06:50:14.610Z,98013.03
2023-05-09T06:52:49.290Z,98014.09
2023-05-09T06:55:22.359Z,98003.59
2023-05-09T06:57:55.401Z,98005.94
2023-05-09T07:00:28.515Z,98002.06
2023-05-09T07:03:01.596Z,98009.41
2023-05-09T07:05:34.761Z,97993.88
2023-05-09T07:08:09.140Z,97996.66
2023-05-09T07:10:42.193Z,97985.25
2023-05-09T07:13:15.219Z,97985.53
2023-05-09T07:15:48.278Z,97979.81
2023-05-09T07:18:21.396Z,97978.06
2023-05-09T07:20:54.446Z,97971.06
2023-05-09T07:23:28.794Z,97975.50
2023-05-09T07:26:01.882Z,97969.59
2023-05-09T07:28:34.861Z,97964.84
2023-05-09T07:31:09.332Z,97973.69
2023-05-09T07:33:42.653Z,97967.06
2023-05-09T07:36:17.084Z,97964.56
2023-05-09T07:38:52.716Z,97958.72
2023-05-09T07:41:26.727Z,97950.50
2023-05-09T07:43:59.722Z,97953.94
2023-05-09T07:46:32.735Z,97950.41
2023-05-09T07:49:05.771Z,97942.59
2023-05-09T07:51:38.795Z,97933.06
2023-05-09T07:54:13.555Z,97934.69
2023-05-09T07:56:46.538Z,97933.22
2023-05-09T07:59:19.589Z,97919.41
2023-05-09T08:01:52.600Z,97916.41
2023-05-09T08:04:25.908Z,97905.81
2023-05-09T08:06:59.493Z,97903.25
2023-05-09T08:09:33.979Z,97892.16
2023-05-09T08:12:07.968Z,97901.97
2023-05-09T08:14:41.054Z,97895.28
2023-05-09T08:17:14.051Z,97894.28
2023-05-09T08:19:47.051Z,97881.06
2023-05-09T08:22:20.382Z,97878.69
2023-05-09T08:24:54.762Z,97870.91
2023-05-09T08:27:27.779Z,97876.09
2023-05-09T08:30:00.774Z,97867.28
2023-05-09T08:32:33.748Z,97871.88
2023-05-09T08:35:08.960Z,97868.38
2023-05-09T08:37:41.998Z,97855.69
2023-05-09T08:40:17.131Z,97858.53
2023-05-09T08:42:51.759Z,97852.41
2023-05-09T08:45:28.313Z,97850.63
2023-05-09T08:48:03.795Z,97850.50
2023-05-09T08:50:36.933Z,97854.06
2023-05-09T08:53:10.164Z,97843.66
2023-05-09T08:55:44.870Z,97846.38
2023-05-09T08:58:22.751Z,97836.88
2023-05-09T09:00:56.547Z,97843.88
2023-05-09T09:03:29.779Z,97838.59
2023-05-09T09:06:03.070Z,97836.00
2023-05-09T09:08:36.918Z,97826.31
2023-05-09T09:11:13.285Z,97824.66
2023-05-09T09:13:47.452Z,97812.34
2023-05-09T09:16:22.632Z,97811.59
2023-05-09T09:18:58.716Z,97805.47
2023-05-09T09:21:33.635Z,97807.22
2023-05-09T09:24:09.062Z,97803.69
2023-05-09T09:26:49.508Z,97786.31
2023-05-09T09:29:22.972Z,97777.63
2023-05-09T09:31:56.114Z,97778.59
2023-05-09T09:34:29.499Z,97778.63
2023-05-09T09:37:02.662Z,97776.03
2023-05-09T09:39:35.632Z,97770.81
2023-05-09T09:42:13.973Z,97767.34
2023-05-09T09:44:46.934Z,97768.25
2023-05-09T09:47:19.871Z,97769.06
2023-05-09T09:49:52.822Z,97763.81
2023-05-09T09:52:26.904Z,97769.06
2023-05-09T09:55:01.513Z,97755.25
2023-05-09T09:57:44.990Z,97757.84
2023-05-09T10:00:21.177Z,97749.84
2023-05-09T10:02:56.105Z,97743.00
2023-05-09T10:05:31.139Z,97739.53
2023-05-09T10:08:07.549Z,97736.88
2023-05-09T10:10:40.676Z,97736.88
2023-05-09T10:13:15.328Z,97737.72
2023-05-09T10:15:53.727Z,97731.66
2023-05-09T10:18:30.787Z,97718.63
2023-05-09T10:21:05.230Z,97708.16
2023-05-09T10:23:39.406Z,97711.72
2023-05-09T10:26:19.464Z,97703.88
2023-05-09T10:28:57.033Z,97711.53
2023-05-09T10:31:33.663Z,97710.34
2023-05-09T10:34:11.544Z,97698.03
2023-05-09T10:36:44.901Z,97695.69
2023-05-09T10:39:18.678Z,97691.63
2023-05-09T10:41:53.487Z,97690.72
2023-05-09T10:44:28.497Z,97686.34
2023-05-09T10:47:02.623Z,97685.34
2023-05-09T10:49:37.091Z,97682.84
2023-05-09T10:52:10.656Z,97672.47
2023-05-09T10:54:43.637Z,97672.38
2023-05-09T10:57:20.746Z,97672.28
2023-05-09T10:59:57.092Z,97661.91
2023-05-09T11:02:32.241Z,97654.06
2023-05-09T11:05:15.780Z,97641.94
2023-05-09T11:07:48.934Z,97641.91
2023-05-09T11:10:21.861Z,97644.53
2023-05-09T11:12:57.922Z,97652.31
2023-05-09T11:15:33.145Z,97625.16
2023-05-09T11:18:08.564Z,97622.56
2023-05-09T11:20:45.767Z,97613.91
2023-05-09T11:23:20.700Z,97611.22
2023-05-09T11:25:54.437Z,97614.09
2023-05-09T11:28:29.235Z,97610.63
2023-05-09T11:31:14.388Z,97599.28
2023-05-09T11:33:55.052Z,97600.22
2023-05-09T11:36:34.009Z,97602.72
2023-05-09T11:39:09.210Z,97595.84
2023-05-09T11:41:44.580Z,97588.03
2023-05-09T11:44:19.267Z,97582.00
2023-05-09T11:46:53.780Z,97582.78
2023-05-09T11:49:29.742Z,97574.16
2023-05-09T11:52:02.716Z,97573.38
2023-05-09T11:54:39.292Z,97571.69
2023-05-09T11:57:17.238Z,97573.41
2023-05-09T11:59:50.267Z,97572.41
2023-05-09T12:02:24.784Z,97562.88
2023-05-09T12:04:57.880Z,97566.41
2023-05-09T12:07:31.672Z,97561.25
2023-05-09T12:10:08.480Z,97554.28
2023-05-09T12:12:45.054Z,97546.47
2023-05-09T12:15:18.975Z,97545.66
2023-05-09T12:18:04.992Z,97523.91
2023-05-09T12:20:46.957Z,97523.88
2023-05-09T12:23:20.418Z,97510.84
2023-05-09T12:25:55.953Z,97507.38
2023-05-09T12:28:29.517Z,97503.03
2023-05-09T12:31:02.991Z,97502.16
2023-05-09T12:33:39.678Z,97507.38
2023-05-09T12:36:15.911Z,97499.53
2023-05-09T12:38:55.453Z,97502.16
2023-05-09T12:41:39.297Z,97491.69
2023-05-09T12:44:24.024Z,97483.91
2023-05-09T12:47:01.386Z,97478.66
2023-05-09T12:49:38.476Z,97477.81
2023-05-09T12:52:20.372Z,97480.41
2023-05-09T12:54:54.253Z,97463.03
2023-05-09T12:57:30.184Z,97457.81
2023-05-09T13:00:07.676Z,97454.34
2023-05-09T13:02:42.323Z,97462.16
2023-05-09T13:05:23.632Z,97456.06
2023-05-09T13:07:58.596Z,97450.84
2023-05-09T13:10:31.561Z,97452.59
2023-05-09T13:13:06.017Z,97453.44
2023-05-09T13:15:39.162Z,97440.41
2023-05-09T13:18:13.070Z,97431.72
2023-05-09T13:20:47.425Z,97431.69
2023-05-09T13:23:20.374Z,97428.25
2023-05-09T13:25:53.358Z,97417.81
2023-05-09T13:28:26.391Z,97411.75
2023-05-09T13:31:00.361Z,97407.38
2023-05-09T13:33:33.379Z,97403.03
2023-05-09T13:36:08.252Z,97400.44
2023-05-09T13:38:42.046Z,97392.59
2023-05-09T13:41:19.969Z,97402.16
2023-05-09T13:43:53.125Z,97386.50
2023-05-09T13:46:26.299Z,97379.56
2023-05-09T13:48:59.471Z,97389.97
2023-05-09T13:51:33.726Z,97382.16
2023-05-09T13:54:12.364Z,97372.59
2023-05-09T13:56:45.338Z,97365.63
2023-05-09T13:59:18.516Z,97356.06
2023-05-09T14:01:51.459Z,97363.06
2023-05-09T14:04:24.564Z,97349.09
2023-05-09T14:06:59.920Z,97347.38
2023-05-09T14:09:38.138Z,97346.50
2023-05-09T14:12:12.078Z,97343.06
2023-05-09T14:14:46.046Z,97328.19
2023-05-09T14:17:19.094Z,97330.81
2023-05-09T14:19:52.024Z,97328.19
2023-05-09T14:22:26.322Z,97323.84
2023-05-09T14:24:59.362Z,97327.38
2023-05-09T14:27:32.283Z,97323.91
2023-05-09T14:30:06.484Z,97315.16
2023-05-09T14:32:39.422Z,97317.81
2023-05-09T14:35:12.540Z,97316.09
2023-05-09T14:37:47.198Z,97313.47
2023-05-09T14:40:21.675Z,97303.06
2023-05-09T14:42:54.639Z,97307.41
2023-05-09T14:45:27.898Z,97292.66
2023-05-09T14:48:01.468Z,97306.53
2023-05-09T14:50:34.649Z,97293.47
2023-05-09T14:53:09.199Z,97276.94
2023-05-09T14:55:42.468Z,97293.47
2023-05-09T14:58:16.094Z,97280.44
2023-05-09T15:00:49.782Z,97266.53
2023-05-09T15:03:22.675Z,97262.19
2023-05-09T15:05:55.846Z,97259.56
2023-05-09T15:08:30.102Z,97261.38
2023-05-09T15:11:03.070Z,97254.38
2023-05-09T15:13:36.425Z,97250.88
2023-05-09T15:16:09.598Z,97252.63
2023-05-09T15:18:45.430Z,97244.75
2023-05-09T15:21:18.439Z,97250.81
2023-05-09T15:23:52.694Z,97238.69
2023-05-09T15:26:26.082Z,97235.22
2023-05-09T15:28:59.057Z,97229.19
2023-05-09T15:31:34.306Z,97228.28
2023-05-09T15:34:07.267Z,97219.66
2023-05-09T15:36:40.236Z,97224.03
2023-05-09T15:39:14.677Z,97223.19
2023-05-09T15:41:47.592Z,97219.66
2023-05-09T15:44:20.508Z,97220.56
2023-05-09T15:46:53.608Z,97224.03
2023-05-09T15:49:26.688Z,97218.84
2023-05-09T15:51:59.674Z,97216.22
2023-05-09T15:54:34.577Z,97217.97
2023-05-09T15:57:08.152Z,97212.72
2023-05-09T15:59:41.218Z,97222.31
2023-05-09T16:02:14.291Z,97224.91
2023-05-09T16:04:47.276Z,97219.69
2023-05-09T16:07:20.532Z,97223.19
2023-05-09T16:09:55.018Z,97218.84
2023-05-09T16:12:28.350Z,97205.84
2023-05-09T16:15:01.885Z,97199.75
2023-05-09T16:17:34.799Z,97191.91
2023-05-09T16:20:09.260Z,97194.50
2023-05-09T16:22:42.390Z,97200.56
2023-05-09T16:25:18.011Z,97199.66
2023-05-09T16:27:51.013Z,97199.59
2023-05-09T16:30:24.141Z,97205.66
2023-05-09T16:32:57.202Z,97196.97
2023-05-09T16:35:30.228Z,97190.84
2023-05-09T16:38:03.187Z,97185.63
2023-05-09T16:40:37.786Z,97186.50
2023-05-09T16:43:10.715Z,97180.44
2023-05-09T16:45:43.811Z,97183.09
2023-05-09T16:48:18.988Z,97172.75
2023-05-09T16:50:53.658Z,97177.03
2023-05-09T16:53:27.806Z,97172.66
2023-05-09T16:56:02.417Z,97168.28
2023-05-09T16:58:36.667Z,97158.75
2023-05-09T17:01:10.632Z,97156.19
2023-05-09T17:03:43.546Z,97161.34
2023-05-09T17:06:16.497Z,97149.22
2023-05-09T17:08:49.756Z,97151.81
2023-05-09T17:11:24.713Z,97141.44
2023-05-09T17:13:57.729Z,97133.59
2023-05-09T17:16:30.807Z,97143.09
2023-05-09T17:19:03.865Z,97130.97
2023-05-09T17:21:38.160Z,97136.13
2023-05-09T17:24:11.190Z,97138.75
2023-05-09T17:26:45.783Z,97138.72
2023-05-09T17:29:18.714Z,97132.66
2023-05-09T17:31:51.932Z,97139.56
2023-05-09T17:34:25.215Z,97137.81
2023-05-09T17:37:02.038Z,97148.22
2023-05-09T17:39:35.177Z,97153.47
2023-05-09T17:42:09.485Z,97155.16
2023-05-09T17:44:44.302Z,97164.38
2023-05-09T17:47:17.575Z,97160.63
2023-05-09T17:49:50.558Z,97187.72
2023-05-09T17:52:23.501Z,97204.94
2023-05-09T17:54:56.414Z,97198.47
2023-05-09T17:57:30.890Z,97227.50
2023-05-09T18:00:04.363Z,97232.03
2023-05-09T18:02:37.423Z,97232.78
2023-05-09T18:05:11.162Z,97233.53
2023-05-09T18:07:44.206Z,97240.34
2023-05-09T18:10:17.378Z,97254.06
2023-05-09T18:12:51.844Z,97259.38
2023-05-09T18:15:26.124Z,97261.31
2023-05-09T18:17:59.382Z,97252.00
2023-05-09T18:20:32.415Z,97245.28
2023-05-09T18:23:05.337Z,97249.75
2023-05-09T18:25:38.660Z,97259.41
2023-05-09T18:28:13.081Z,97255.09
2023-05-09T18:30:46.010Z,97257.75
2023-05-09T18:33:18.934Z,97276.44
2023-05-09T18:35:51.953Z,97287.69
2023-05-09T18:38:24.895Z,97283.69
2023-05-09T18:40:57.797Z,97291.47
2023-05-09T18:43:32.082Z,97291.47
2023-05-09T18:46:05.234Z,97288.69
2023-05-09T18:48:39.062Z,97299.38
2023-05-09T18:51:12.167Z,97290.63
2023-05-09T18:53:46.402Z,97289.56
2023-05-09T18:56:20.904Z,97288.06
2023-05-09T18:58:55.360Z,97285.63
2023-05-09T19:01:28.409Z,97294.78
2023-05-09T19:04:01.911Z,97293.97
2023-05-09T19:06:34.972Z,97290.41
2023-05-09T19:09:07.918Z,97279.88
2023-05-09T19:11:40.871Z,97274.53
2023-05-09T19:14:15.284Z,97283.75
2023-05-09T19:16:50.297Z,97284.47
2023-05-09T19:19:23.265Z,97291.00
2023-05-09T19:21:56.413Z,97289.28
2023-05-09T19:24:29.527Z,97290.13
2023-05-09T19:27:02.565Z,97305.53
2023-05-09T19:29:36.860Z,97303.69
2023-05-09T19:32:09.819Z,97306.38
2023-05-09T19:34:44.213Z,97313.16
2023-05-09T19:37:17.144Z,97321.59
2023-05-09T19:39:50.119Z,97315.34
2023-05-09T19:42:23.053Z,97316.69
2023-05-09T19:44:57.384Z,97317.00
2023-05-09T19:47:30.404Z,97319.28
2023-05-09T19:50:03.358Z,97316.88
2023-05-09T19:52:37.256Z,97315.34
2023-05-09T19:55:11.380Z,97316.09
2023-05-09T19:57:44.297Z,97318.09
2023-05-09T20:00:20.246Z,97317.09
2023-05-09T20:02:53.204Z,97308.72
2023-05-09T20:05:26.332Z,97318.84
2023-05-09T20:07:59.308Z,97313.88
2023-05-09T20:10:32.985Z,97314.81
2023-05-09T20:13:07.238Z,97313.00
2023-05-09T20:15:41.608Z,97319.09
2023-05-09T20:18:16.276Z,97309.56
2023-05-09T20:20:49.369Z,97312.13
2023-05-09T20:23:22.446Z,97310.38
2023-05-09T20:25:55.988Z,97313.03
2023-05-09T20:28:29.243Z,97305.22
2023-05-09T20:31:03.557Z,97308.72
2023-05-09T20:33:36.651Z,97312.41
2023-05-09T20:36:11.114Z,97310.66
2023-05-09T20:38:44.085Z,97308.91
2023-05-09T20:41:17.371Z,97308.13
2023-05-09T20:43:50.376Z,97305.47
2023-05-09T20:46:24.673Z,97304.69
2023-05-09T20:48:57.669Z,97298.78
2023-05-09T20:51:31.399Z,97302.19
2023-05-09T20:54:04.720Z,97300.53
2023-05-09T20:56:37.751Z,97307.50
2023-05-09T20:59:10.736Z,97299.78
2023-05-09T21:01:45.051Z,97298.06
2023-05-09T21:04:18.020Z,97296.41
2023-05-09T21:06:51.057Z,97298.97
2023-05-09T21:09:24.017Z,97294.69
2023-05-09T21:11:57.095Z,97294.88
2023-05-09T21:14:30.107Z,97299.97
2023-05-09T21:17:04.468Z,97293.84
2023-05-09T21:19:37.424Z,97285.28
2023-05-09T21:22:10.405Z,97283.69
2023-05-09T21:24:43.437Z,97288.94
2023-05-09T21:27:16.403Z,97281.22
2023-05-09T21:29:49.741Z,97279.59
2023-05-09T21:32:24.438Z,97277.25
2023-05-09T21:34:57.403Z,97274.59
2023-05-09T21:37:30.810Z,97278.88
2023-05-09T21:40:05.681Z,97278.84
2023-05-09T21:42:40.238Z,97281.38
2023-05-09T21:45:13.202Z,97277.94
2023-05-09T21:47:47.609Z,97284.81
2023-05-09T21:50:20.914Z,97277.19
2023-05-09T21:52:56.094Z,97276.16
2023-05-09T21:55:29.029Z,97270.16
2023-05-09T21:58:02.131Z,97277.84
2023-05-09T22:00:35.502Z,97262.19
2023-05-09T22:03:10.003Z,97271.56
2023-05-09T22:05:43.055Z,97264.59
2023-05-09T22:08:16.034Z,97266.28
2023-05-09T22:10:48.976Z,97274.72
2023-05-09T22:13:22.051Z,97272.84
2023-05-09T22:15:55.109Z,97274.53
2023-05-09T22:18:29.512Z,97263.25
2023-05-09T22:21:02.474Z,97269.31
2023-05-09T22:23:35.599Z,97261.50
2023-05-09T22:26:08.563Z,97265.78
2023-05-09T22:28:41.565Z,97266.59
2023-05-09T22:31:14.597Z,97264.03
2023-05-09T22:33:48.897Z,97261.44
2023-05-09T22:36:22.069Z,97268.38
2023-05-09T22:38:55.024Z,97260.47
2023-05-09T22:41:28.500Z,97264.44
2023-05-09T22:44:01.482Z,97264.28
2023-05-09T22:46:34.526Z,97264.03
2023-05-09T22:49:08.889Z,97258.69
2023-05-09T22:51:42.111Z,97256.09
2023-05-09T22:54:15.233Z,97256.81
2023-05-09T22:56:48.440Z,97256.00
2023-05-09T22:59:21.384Z,97261.28
2023-05-09T23:01:54.500Z,97261.28
2023-05-09T23:04:28.817Z,97261.34
2023-05-09T23:07:01.979Z,97258.00
2023-05-09T23:09:35.391Z,97259.81
2023-05-09T23:12:10.569Z,97257.41
2023-05-09T23:14:43.537Z,97263.13
2023-05-09T23:17:16.479Z,97255.34
2023-05-09T23:19:50.843Z,97258.69
2023-05-09T23:22:23.798Z,97255.22
2023-05-09T23:24:57.351Z,97256.03
2023-05-09T23:27:31.248Z,97252.41
2023-05-09T23:30:04.648Z,97252.44
2023-05-09T23:32:37.969Z,97246.44
2023-05-09T23:35:12.547Z,97252.25
2023-05-09T23:37:45.671Z,97240.31
2023-05-09T23:40:18.886Z,97249.78
2023-05-09T23:42:51.803Z,97260.72
2023-05-09T23:45:24.776Z,97252.81
2023-05-09T23:47:58.096Z,97251.91
2023-05-09T23:50:32.428Z,97248.47
2023-05-09T23:53:06.491Z,97245.66
2023-05-09T23:55:39.474Z,97247.31
2023-05-09T23:58:13.313Z,97245.66
